Time;durP1;ratioP1;P1;durP2;ratioP2;P2;SDS_P1;SDS_P2;PMS_P1;PMS_P2;Temp;Humidity;BMP_temperature;BMP_pressure;BME280_temperature;BME280_humidity;BME280_pressure;Samples;Min_cycle;Max_cycle;Signal;HPM_P1;HPM_P2
2023/10/23 00:01:43;;;;;;;3.17;3.07;;;11.30;78.90;;;;;;6225885;28;20315;-81
2023/10/23 00:04:46;;;;;;;2.83;2.83;;;11.30;78.90;;;;;;6223887;28;20370;-81
2023/10/23 00:07:50;;;;;;;3.40;3.30;;;11.30;79.00;;;;;;6234718;28;20340;-83
2023/10/23 00:10:53;;;;;;;3.30;3.10;;;11.30;79.00;;;;;;6227258;28;20231;-84
2023/10/23 00:13:56;;;;;;;2.80;2.77;;;11.20;79.00;;;;;;6214961;28;21686;-84
2023/10/23 00:17:01;;;;;;;2.80;2.70;;;11.10;79.00;;;;;;6244574;28;20238;-84
2023/10/23 00:20:05;;;;;;;3.17;3.07;;;11.10;79.00;;;;;;6215588;28;20243;-82
2023/10/23 00:23:08;;;;;;;3.53;3.33;;;11.10;79.10;;;;;;6245703;28;20317;-84
2023/10/23 00:26:11;;;;;;;3.40;3.10;;;11.10;79.20;;;;;;6222458;28;20265;-81
2023/10/23 00:29:15;;;;;;;2.80;2.80;;;11.00;79.40;;;;;;6226611;28;20233;-83
2023/10/23 00:32:22;;;;;;;3.33;3.23;;;10.90;79.60;;;;;;6232872;28;20705;-82
2023/10/23 00:35:25;;;;;;;3.00;2.90;;;10.90;79.70;;;;;;6244700;28;20737;-84
2023/10/23 00:38:28;;;;;;;2.83;2.83;;;10.90;79.70;;;;;;6240879;28;20261;-84
2023/10/23 00:41:32;;;;;;;3.43;3.33;;;10.80;79.80;;;;;;6282615;28;20894;-83
2023/10/23 00:44:35;;;;;;;3.47;3.37;;;10.70;80.00;;;;;;6247861;28;20768;-85
2023/10/23 00:47:39;;;;;;;3.47;3.37;;;10.70;80.00;;;;;;6251189;28;20290;-82
2023/10/23 00:50:43;;;;;;;3.27;3.17;;;10.60;80.10;;;;;;6237606;28;20242;-83
2023/10/23 00:53:46;;;;;;;3.40;3.30;;;10.60;80.20;;;;;;6237018;28;20637;-83
2023/10/23 00:56:50;;;;;;;3.00;2.90;;;10.50;80.20;;;;;;6242725;28;20390;-83
2023/10/23 00:59:55;;;;;;;3.00;2.97;;;10.50;80.40;;;;;;6253835;28;20790;-84
2023/10/23 01:02:59;;;;;;;3.30;3.30;;;10.40;80.40;;;;;;6239843;28;20246;-84
2023/10/23 01:06:03;;;;;;;3.07;2.97;;;10.40;80.50;;;;;;6240424;28;20238;-82
2023/10/23 01:09:06;;;;;;;2.90;2.90;;;10.30;80.60;;;;;;6245832;28;20266;-85
2023/10/23 01:12:10;;;;;;;2.77;2.77;;;10.20;80.70;;;;;;6253706;28;20659;-85
2023/10/23 01:15:13;;;;;;;3.00;2.90;;;10.20;80.80;;;;;;6247593;28;20272;-81
2023/10/23 01:18:18;;;;;;;2.93;2.83;;;10.10;80.90;;;;;;6243194;28;20285;-79
2023/10/23 01:21:21;;;;;;;3.37;3.30;;;10.10;81.00;;;;;;6252524;28;20372;-85
2023/10/23 01:24:30;;;;;;;3.23;3.10;;;10.00;81.10;;;;;;6236546;28;20243;-83
2023/10/23 01:27:34;;;;;;;2.93;2.93;;;10.00;81.20;;;;;;6237844;28;20336;-83
2023/10/23 01:30:38;;;;;;;3.20;3.10;;;10.00;81.30;;;;;;6241817;28;20249;-81
2023/10/23 01:33:42;;;;;;;3.10;3.00;;;9.90;81.20;;;;;;6250605;28;20246;-83
2023/10/23 01:36:46;;;;;;;3.20;3.10;;;9.80;81.40;;;;;;6249778;28;20235;-82
2023/10/23 01:39:49;;;;;;;3.17;3.07;;;9.70;81.50;;;;;;6247372;28;20235;-85
2023/10/23 01:42:54;;;;;;;2.87;2.87;;;9.70;81.50;;;;;;6248829;28;20225;-82
2023/10/23 01:45:59;;;;;;;2.80;2.73;;;9.60;81.70;;;;;;6260210;28;20233;-83
2023/10/23 01:49:02;;;;;;;3.03;2.93;;;9.60;81.80;;;;;;6248237;28;20229;-75
2023/10/23 01:52:05;;;;;;;3.50;3.37;;;9.60;81.90;;;;;;6284581;28;20246;-79
2023/10/23 01:55:09;;;;;;;3.57;3.50;;;9.60;82.00;;;;;;6279460;28;20241;-80
2023/10/23 01:58:13;;;;;;;3.70;3.60;;;9.60;82.20;;;;;;6273858;28;20439;-79
2023/10/23 02:01:22;;;;;;;3.30;3.20;;;9.60;82.30;;;;;;6275076;28;20230;-80
2023/10/23 02:04:27;;;;;;;3.37;3.30;;;9.60;82.40;;;;;;6265821;28;20294;-77
2023/10/23 02:07:30;;;;;;;3.10;3.10;;;9.60;82.50;;;;;;6265417;28;20634;-82
2023/10/23 02:10:33;;;;;;;3.40;3.30;;;9.60;82.50;;;;;;6263152;28;20745;-83
2023/10/23 02:13:38;;;;;;;3.53;3.33;;;9.60;82.60;;;;;;6253672;28;20663;-83
2023/10/23 02:16:41;;;;;;;3.27;3.17;;;9.60;82.70;;;;;;6243333;28;20364;-83
2023/10/23 02:19:45;;;;;;;3.03;3.03;;;9.60;82.80;;;;;;6239644;28;20616;-83
2023/10/23 02:22:48;;;;;;;3.00;2.90;;;9.60;82.90;;;;;;6255271;28;20732;-82
2023/10/23 02:25:51;;;;;;;3.43;3.30;;;9.60;83.00;;;;;;6247997;28;22607;-82
2023/10/23 02:28:57;;;;;;;3.17;3.10;;;9.60;83.00;;;;;;6253093;28;20348;-85
2023/10/23 02:32:00;;;;;;;3.20;3.10;;;9.60;83.00;;;;;;6252574;28;20276;-84
2023/10/23 02:35:04;;;;;;;3.60;3.50;;;9.60;83.00;;;;;;6245543;28;20235;-81
2023/10/23 02:38:07;;;;;;;3.07;3.07;;;9.60;83.00;;;;;;6241317;28;20905;-84
2023/10/23 02:41:10;;;;;;;2.77;2.77;;;9.60;83.00;;;;;;6236871;28;20242;-84
2023/10/23 02:44:15;;;;;;;3.33;3.13;;;9.60;83.00;;;;;;6238115;28;20631;-82
2023/10/23 02:47:18;;;;;;;3.53;3.43;;;9.50;83.10;;;;;;6238723;28;20273;-81
2023/10/23 02:50:22;;;;;;;3.50;3.30;;;9.50;83.10;;;;;;6240336;28;20261;-82
2023/10/23 02:53:26;;;;;;;3.27;3.17;;;9.50;83.20;;;;;;6248946;28;20745;-83
2023/10/23 02:56:29;;;;;;;3.67;3.57;;;9.50;83.20;;;;;;6248810;28;20300;-84
2023/10/23 02:59:36;;;;;;;4.63;3.47;;;9.40;83.20;;;;;;6257943;28;20226;-82
2023/10/23 03:02:39;;;;;;;4.07;3.93;;;9.40;83.30;;;;;;6245485;28;20245;-82
2023/10/23 03:05:43;;;;;;;3.50;3.50;;;9.40;83.40;;;;;;6251362;28;20308;-81
2023/10/23 03:08:46;;;;;;;3.50;3.40;;;9.40;83.60;;;;;;6262115;28;20234;-83
2023/10/23 03:11:49;;;;;;;3.30;3.20;;;9.40;83.60;;;;;;6257321;28;20700;-82
2023/10/23 03:15:03;;;;;;;3.80;3.60;;;9.40;83.60;;;;;;6251517;28;20331;-83
2023/10/23 03:18:06;;;;;;;4.20;4.00;;;9.40;83.70;;;;;;6248932;28;20243;-84
2023/10/23 03:21:10;;;;;;;4.30;4.10;;;9.40;83.70;;;;;;6247858;28;20238;-83
2023/10/23 03:24:13;;;;;;;3.97;3.87;;;9.40;83.90;;;;;;6216287;28;20239;-83
2023/10/23 03:27:16;;;;;;;5.63;3.87;;;9.40;83.90;;;;;;6211844;28;20239;-82
2023/10/23 03:30:20;;;;;;;3.73;3.50;;;9.40;83.90;;;;;;6216598;28;20246;-84
2023/10/23 03:33:23;;;;;;;4.10;3.90;;;9.40;84.00;;;;;;6215147;28;20732;-84
2023/10/23 03:36:27;;;;;;;3.63;3.53;;;9.40;84.00;;;;;;6226214;28;20231;-82
2023/10/23 03:39:30;;;;;;;4.00;3.90;;;9.40;84.00;;;;;;6215031;28;20235;-82
2023/10/23 03:42:33;;;;;;;4.40;4.20;;;9.40;84.00;;;;;;6237070;28;20246;-81
2023/10/23 03:45:38;;;;;;;3.57;3.47;;;9.40;84.00;;;;;;6242970;28;20246;-79
2023/10/23 03:48:41;;;;;;;3.57;3.47;;;9.30;84.00;;;;;;6235903;28;20261;-81
2023/10/23 03:51:45;;;;;;;4.47;4.10;;;9.20;83.90;;;;;;6220428;28;20235;-85
2023/10/23 03:54:48;;;;;;;3.73;3.63;;;9.20;84.00;;;;;;6232749;28;20276;-84
2023/10/23 03:57:51;;;;;;;3.77;3.67;;;9.20;84.00;;;;;;6230628;28;20243;-84
2023/10/23 04:00:56;;;;;;;3.83;3.73;;;9.20;84.00;;;;;;6220342;28;20239;-86
2023/10/23 04:03:59;;;;;;;4.07;3.97;;;9.10;84.10;;;;;;6232093;28;20242;-84
2023/10/23 04:07:03;;;;;;;4.57;4.30;;;9.10;84.20;;;;;;6223192;28;20223;-83
2023/10/23 04:10:08;;;;;;;3.97;3.87;;;9.10;84.30;;;;;;6234983;28;20231;-84
2023/10/23 04:13:13;;;;;;;3.83;3.73;;;9.10;84.30;;;;;;6248997;28;20259;-84
2023/10/23 04:16:17;;;;;;;3.80;3.67;;;9.00;84.30;;;;;;6224870;28;20263;-82
2023/10/23 04:19:21;;;;;;;3.83;3.63;;;9.00;84.30;;;;;;6226737;28;20243;-84
2023/10/23 04:22:25;;;;;;;3.80;3.70;;;9.00;84.30;;;;;;6240854;28;20242;-81
2023/10/23 04:25:28;;;;;;;3.83;3.73;;;9.00;84.30;;;;;;6224313;28;20250;-81
2023/10/23 04:28:31;;;;;;;3.90;3.80;;;9.00;84.30;;;;;;6233617;28;20262;-83
2023/10/23 04:31:36;;;;;;;3.67;3.67;;;9.00;84.50;;;;;;6222081;28;20326;-82
2023/10/23 04:34:39;;;;;;;4.17;4.00;;;9.00;84.40;;;;;;6235942;28;20242;-83
2023/10/23 04:37:42;;;;;;;3.80;3.70;;;8.90;84.40;;;;;;6243659;28;20242;-84
2023/10/23 04:40:50;;;;;;;4.00;3.90;;;8.90;84.40;;;;;;6227497;28;20267;-83
2023/10/23 04:43:54;;;;;;;4.70;4.40;;;8.90;84.40;;;;;;6237998;28;20239;-84
2023/10/23 04:46:59;;;;;;;4.73;4.53;;;8.90;84.60;;;;;;6241322;28;20258;-84
2023/10/23 04:50:02;;;;;;;5.37;4.97;;;8.90;84.70;;;;;;6242535;28;20238;-83
2023/10/23 04:53:05;;;;;;;4.70;4.50;;;8.90;84.70;;;;;;6241142;28;20242;-83
2023/10/23 04:56:09;;;;;;;4.70;4.50;;;8.90;84.70;;;;;;6235530;28;20227;-82
2023/10/23 04:59:12;;;;;;;4.70;4.60;;;8.90;84.60;;;;;;6248194;28;20245;-82
2023/10/23 05:02:16;;;;;;;4.80;4.70;;;8.80;84.60;;;;;;6250020;28;20284;-80
2023/10/23 05:05:19;;;;;;;5.30;5.00;;;8.80;84.70;;;;;;6246491;28;20246;-82
2023/10/23 05:08:22;;;;;;;4.83;4.73;;;8.80;84.70;;;;;;6236623;28;20281;-83
2023/10/23 05:11:26;;;;;;;4.50;4.40;;;8.70;84.70;;;;;;6236987;28;20707;-81
2023/10/23 05:14:29;;;;;;;5.00;4.80;;;8.70;84.80;;;;;;6241874;28;20250;-82
2023/10/23 05:17:33;;;;;;;4.93;4.73;;;8.70;84.80;;;;;;6231324;28;20239;-81
2023/10/23 05:20:36;;;;;;;5.23;5.03;;;8.60;84.80;;;;;;6234656;28;20230;-83
2023/10/23 05:23:40;;;;;;;5.03;4.93;;;8.60;84.80;;;;;;6231326;28;20250;-82
2023/10/23 05:26:43;;;;;;;4.87;4.77;;;8.60;84.80;;;;;;6209490;28;20710;-81
2023/10/23 05:29:46;;;;;;;5.40;5.00;;;8.60;84.80;;;;;;6224687;28;20317;-83
2023/10/23 05:32:51;;;;;;;5.10;4.90;;;8.60;84.80;;;;;;6240105;28;20242;-75
2023/10/23 05:36:03;;;;;;;4.73;4.53;;;8.50;84.90;;;;;;6240850;28;20284;-81
2023/10/23 05:39:07;;;;;;;5.27;5.03;;;8.50;85.00;;;;;;6224550;28;20238;-83
2023/10/23 05:42:10;;;;;;;5.83;5.53;;;8.50;85.00;;;;;;6233658;28;20261;-81
2023/10/23 05:45:13;;;;;;;5.07;4.97;;;8.40;85.10;;;;;;6213583;28;20246;-82
2023/10/23 05:48:17;;;;;;;5.73;5.43;;;8.50;85.10;;;;;;6211596;28;20848;-77
2023/10/23 05:51:21;;;;;;;7.33;6.80;;;8.50;85.30;;;;;;6204230;28;20253;-80
2023/10/23 05:54:25;;;;;;;7.60;6.90;;;8.50;85.70;;;;;;6212160;28;20265;-78
2023/10/23 05:57:28;;;;;;;8.70;6.90;;;8.60;86.20;;;;;;6212316;28;20231;-81
2023/10/23 06:00:32;;;;;;;8.20;7.53;;;8.60;86.20;;;;;;6211887;28;20615;-80
2023/10/23 06:03:36;;;;;;;7.00;6.60;;;8.70;86.20;;;;;;6211661;28;20243;-80
2023/10/23 06:06:39;;;;;;;6.87;6.40;;;8.70;86.00;;;;;;6210389;28;20239;-82
2023/10/23 06:09:43;;;;;;;6.90;6.40;;;8.70;85.90;;;;;;6210009;28;20438;-81
2023/10/23 06:12:46;;;;;;;7.07;6.63;;;8.70;85.90;;;;;;6205644;28;20242;-81
2023/10/23 06:15:49;;;;;;;6.97;6.47;;;8.80;86.00;;;;;;6213564;28;20731;-81
2023/10/23 06:18:54;;;;;;;6.17;5.77;;;8.80;86.00;;;;;;6212315;28;20723;-80
2023/10/23 06:21:57;;;;;;;6.07;5.77;;;8.90;86.10;;;;;;6214243;28;20231;-78
2023/10/23 06:25:00;;;;;;;7.87;7.37;;;8.90;86.10;;;;;;6216364;28;20892;-79
2023/10/23 06:28:07;;;;;;;7.53;6.93;;;9.00;86.50;;;;;;6215392;28;20227;-80
2023/10/23 06:31:11;;;;;;;7.43;6.93;;;9.00;86.50;;;;;;6223011;28;20281;-81
2023/10/23 06:34:16;;;;;;;6.47;5.77;;;9.00;86.30;;;;;;6215122;28;20239;-80
2023/10/23 06:37:19;;;;;;;6.83;6.37;;;9.10;86.20;;;;;;6214210;28;20714;-81
2023/10/23 06:40:23;;;;;;;6.53;6.13;;;9.20;86.10;;;;;;6214358;28;20722;-81
2023/10/23 06:43:26;;;;;;;6.70;6.33;;;9.20;86.10;;;;;;6215751;28;20250;-79
2023/10/23 06:46:29;;;;;;;7.37;6.97;;;9.20;86.10;;;;;;6211869;28;20247;-80
2023/10/23 06:49:34;;;;;;;7.07;6.57;;;9.20;86.20;;;;;;6215444;28;20719;-81
2023/10/23 06:52:37;;;;;;;6.70;6.20;;;9.30;86.20;;;;;;6212967;28;20274;-81
2023/10/23 06:55:47;;;;;;;9.57;8.60;;;9.40;86.20;;;;;;6208400;28;20246;-80
2023/10/23 06:58:50;;;;;;;7.87;7.20;;;9.40;86.30;;;;;;6230015;28;20393;-79
2023/10/23 07:01:54;;;;;;;7.50;7.00;;;9.60;86.30;;;;;;6233705;28;20265;-80
2023/10/23 07:04:58;;;;;;;8.43;7.73;;;9.70;86.30;;;;;;6241248;28;20242;-79
2023/10/23 07:08:01;;;;;;;9.27;8.47;;;9.80;86.20;;;;;;6257409;28;20769;-79
2023/10/23 07:11:11;;;;;;;9.53;8.83;;;9.90;86.00;;;;;;6228384;28;20243;-77
2023/10/23 07:14:15;;;;;;;10.23;8.97;;;10.00;86.00;;;;;;6244147;28;20253;-79
2023/10/23 07:17:19;;;;;;;7.93;7.43;;;10.00;85.40;;;;;;6239531;28;20242;-78
2023/10/23 07:20:24;;;;;;;13.70;12.30;;;10.20;85.70;;;;;;6239976;28;20234;-80
2023/10/23 07:23:28;;;;;;;11.40;10.40;;;10.20;85.30;;;;;;6254592;28;20239;-81
2023/10/23 07:26:32;;;;;;;11.50;9.73;;;10.40;85.40;;;;;;6247839;28;20703;-81
2023/10/23 07:29:35;;;;;;;12.30;10.53;;;10.40;85.00;;;;;;6248981;28;20239;-79
2023/10/23 07:32:38;;;;;;;18.57;9.70;;;10.50;84.70;;;;;;6248641;28;20242;-78
2023/10/23 07:35:42;;;;;;;9.63;8.70;;;10.50;84.70;;;;;;6253816;28;20734;-79
2023/10/23 07:38:55;;;;;;;9.90;8.93;;;10.60;84.30;;;;;;6241201;28;20330;-82
2023/10/23 07:41:58;;;;;;;10.03;9.23;;;10.60;83.70;;;;;;6247537;28;20262;-79
2023/10/23 07:45:03;;;;;;;9.30;8.37;;;10.60;82.90;;;;;;6245078;28;20238;-79
2023/10/23 07:48:06;;;;;;;9.73;8.20;;;10.70;83.10;;;;;;6249132;28;20626;-80
2023/10/23 07:51:11;;;;;;;8.67;8.00;;;10.80;83.20;;;;;;6257905;28;20236;-81
2023/10/23 07:54:14;;;;;;;9.57;8.77;;;10.80;82.80;;;;;;6257475;28;20238;-79
2023/10/23 07:57:20;;;;;;;9.87;9.03;;;10.70;81.90;;;;;;6248796;28;20883;-76
2023/10/23 08:00:23;;;;;;;9.50;8.70;;;10.80;82.50;;;;;;6248934;28;20649;-81
2023/10/23 08:03:26;;;;;;;10.37;9.37;;;10.90;82.60;;;;;;6244185;28;20776;-82
2023/10/23 08:06:31;;;;;;;9.73;8.97;;;10.90;82.00;;;;;;6241950;28;20734;-81
2023/10/23 08:09:35;;;;;;;13.80;12.27;;;11.00;81.80;;;;;;6240103;28;20684;-81
2023/10/23 08:12:38;;;;;;;11.10;10.13;;;11.10;82.00;;;;;;6245202;28;20647;-80
2023/10/23 08:15:43;;;;;;;10.33;9.53;;;11.10;82.00;;;;;;6251566;28;20242;-81
2023/10/23 08:18:46;;;;;;;10.07;8.90;;;11.20;81.80;;;;;;6248558;28;20648;-82
2023/10/23 08:21:50;;;;;;;10.60;9.57;;;11.30;81.70;;;;;;6243314;28;20296;-80
2023/10/23 08:24:54;;;;;;;9.67;8.97;;;11.40;81.10;;;;;;6244211;28;20234;-77
2023/10/23 08:27:57;;;;;;;9.93;9.03;;;11.50;81.20;;;;;;6260276;28;20261;-77
2023/10/23 08:31:00;;;;;;;10.30;9.30;;;11.50;80.80;;;;;;6254234;28;20748;-80
2023/10/23 08:34:03;;;;;;;10.43;9.50;;;11.50;80.00;;;;;;6239785;28;20242;-78
2023/10/23 08:37:08;;;;;;;11.13;9.63;;;11.50;80.30;;;;;;6258970;28;20734;-78
2023/10/23 08:40:13;;;;;;;10.70;9.23;;;11.50;79.90;;;;;;6255511;28;20634;-81
2023/10/23 08:43:16;;;;;;;10.27;9.37;;;11.60;80.20;;;;;;6251563;28;20340;-82
2023/10/23 08:46:19;;;;;;;8.57;8.07;;;11.70;79.70;;;;;;6248347;28;20246;-83
2023/10/23 08:49:23;;;;;;;9.30;8.50;;;11.70;79.90;;;;;;6245546;28;20765;-81
2023/10/23 08:52:35;;;;;;;9.57;8.77;;;11.80;80.00;;;;;;6260675;28;20249;-80
2023/10/23 08:55:40;;;;;;;8.20;7.70;;;11.90;79.80;;;;;;6235366;28;20721;-80
2023/10/23 08:58:49;;;;;;;10.80;9.87;;;12.10;80.00;;;;;;6249999;28;20302;-81
2023/10/23 09:01:52;;;;;;;10.07;9.17;;;12.10;78.80;;;;;;6258292;28;20330;-80
2023/10/23 09:05:04;;;;;;;14.27;9.90;;;12.10;78.80;;;;;;6255959;28;20838;-81
2023/10/23 09:08:08;;;;;;;9.43;8.73;;;12.20;78.90;;;;;;6249222;28;20262;-79
2023/10/23 09:11:12;;;;;;;11.10;9.97;;;12.30;79.00;;;;;;6243354;28;20845;-78
2023/10/23 09:14:24;;;;;;;9.87;9.07;;;12.50;78.60;;;;;;6252686;28;21026;-79
2023/10/23 09:17:29;;;;;;;8.77;8.17;;;12.50;78.60;;;;;;6239442;28;20238;-80
2023/10/23 09:20:34;;;;;;;11.50;8.77;;;12.50;78.50;;;;;;6253598;28;20250;-83
2023/10/23 09:23:50;;;;;;;10.73;9.63;;;12.80;78.20;;;;;;6242731;28;20229;-82
2023/10/23 09:26:53;;;;;;;9.33;8.50;;;12.80;77.10;;;;;;6255578;28;20262;-78
2023/10/23 09:30:02;;;;;;;9.33;8.60;;;12.80;77.40;;;;;;6253801;28;20242;-81
2023/10/23 09:33:07;;;;;;;8.73;8.20;;;12.90;76.50;;;;;;6237842;28;20253;-81
2023/10/23 09:36:11;;;;;;;9.73;8.93;;;12.90;76.00;;;;;;6248451;28;20237;-80
2023/10/23 09:39:16;;;;;;;8.07;7.47;;;12.90;76.00;;;;;;6235816;28;20328;-80
2023/10/23 09:42:19;;;;;;;10.10;9.17;;;12.90;76.40;;;;;;6234837;28;20818;-83
2023/10/23 09:45:23;;;;;;;10.03;9.03;;;12.80;76.00;;;;;;6215708;28;20239;-80
2023/10/23 09:48:31;;;;;;;10.10;9.03;;;12.70;76.10;;;;;;6233154;28;20296;-79
2023/10/23 09:51:38;;;;;;;9.43;8.83;;;12.60;76.50;;;;;;6246846;28;20791;-80
2023/10/23 09:54:47;;;;;;;8.57;8.07;;;12.60;77.00;;;;;;6233726;28;20250;-80
2023/10/23 09:57:54;;;;;;;10.03;9.30;;;12.90;77.00;;;;;;6212771;28;20382;-83
2023/10/23 10:00:58;;;;;;;10.57;9.63;;;13.10;75.90;;;;;;6241726;28;20619;-81
2023/10/23 10:04:16;;;;;;;10.53;9.53;;;13.10;75.70;;;;;;6236334;28;20358;-82
2023/10/23 10:07:26;;;;;;;10.53;9.63;;;13.20;75.20;;;;;;6234333;28;20243;-82
2023/10/23 10:10:32;;;;;;;11.37;10.27;;;13.20;75.50;;;;;;6229834;28;20279;-86
2023/10/23 10:13:37;;;;;;;10.30;9.40;;;13.30;75.00;;;;;;6215009;28;20900;-79
2023/10/23 10:16:42;;;;;;;10.67;9.77;;;13.30;75.40;;;;;;6230499;28;20861;-82
2023/10/23 10:19:47;;;;;;;9.37;8.57;;;13.50;75.00;;;;;;6240873;28;20237;-81
2023/10/23 10:22:58;;;;;;;9.90;9.00;;;13.90;74.10;;;;;;6258907;28;20296;-81
2023/10/23 10:26:03;;;;;;;7.50;7.10;;;13.70;73.80;;;;;;6260459;28;20315;-83
2023/10/23 10:29:06;;;;;;;8.03;7.60;;;14.00;73.80;;;;;;6252737;28;20533;-84
2023/10/23 10:32:10;;;;;;;8.10;7.60;;;14.20;72.20;;;;;;6250410;28;20246;-80
2023/10/23 10:35:27;;;;;;;8.20;7.57;;;14.40;72.00;;;;;;6244256;28;20226;-74
2023/10/23 10:38:45;;;;;;;6.90;6.37;;;14.50;70.10;;;;;;6275157;28;20213;-77
2023/10/23 10:41:52;;;;;;;8.13;7.33;;;14.60;70.80;;;;;;6290287;28;20238;-75
2023/10/23 10:44:56;;;;;;;7.80;6.33;;;14.70;69.70;;;;;;6282957;28;20421;-78
2023/10/23 10:48:00;;;;;;;7.17;6.63;;;14.80;69.60;;;;;;6279789;28;20256;-78
2023/10/23 10:51:04;;;;;;;6.90;6.30;;;15.00;68.90;;;;;;6282452;28;20271;-79
2023/10/23 10:54:08;;;;;;;9.53;7.40;;;15.00;68.70;;;;;;6273039;28;20253;-80
2023/10/23 10:57:17;;;;;;;7.20;6.63;;;14.90;68.50;;;;;;6285032;28;20274;-80
2023/10/23 11:00:22;;;;;;;6.10;5.70;;;15.00;68.30;;;;;;6286816;28;20238;-78
2023/10/23 11:03:27;;;;;;;6.60;6.10;;;15.00;68.20;;;;;;6264737;28;20250;-80
2023/10/23 11:06:31;;;;;;;6.03;5.53;;;14.90;68.20;;;;;;6285248;28;20227;-78
2023/10/23 11:09:34;;;;;;;5.83;5.40;;;15.00;68.70;;;;;;6291163;28;20281;-80
2023/10/23 11:12:39;;;;;;;6.40;5.87;;;14.80;69.10;;;;;;6280715;28;20230;-78
2023/10/23 11:15:42;;;;;;;6.33;5.83;;;14.90;69.10;;;;;;6275379;28;20249;-81
2023/10/23 11:18:45;;;;;;;7.50;6.67;;;14.80;69.30;;;;;;6289762;28;20225;-80
2023/10/23 11:21:50;;;;;;;6.60;6.20;;;14.90;69.00;;;;;;6283344;28;20222;-78
2023/10/23 11:24:54;;;;;;;6.90;6.50;;;15.00;69.20;;;;;;6286855;28;20246;-76
2023/10/23 11:27:58;;;;;;;6.90;6.40;;;15.00;69.30;;;;;;6288773;28;20225;-80
2023/10/23 11:31:02;;;;;;;5.90;5.43;;;15.20;68.70;;;;;;6272682;28;20238;-77
2023/10/23 11:34:10;;;;;;;6.33;5.80;;;15.30;68.70;;;;;;6278092;28;20234;-78
2023/10/23 11:37:13;;;;;;;5.97;5.67;;;15.60;68.40;;;;;;6274598;28;20222;-80
2023/10/23 11:40:22;;;;;;;8.27;5.93;;;15.80;67.30;;;;;;6286072;28;20233;-79
2023/10/23 11:43:26;;;;;;;6.47;6.07;;;15.80;67.70;;;;;;6273083;28;20235;-80
2023/10/23 11:46:30;;;;;;;6.93;6.37;;;15.80;67.30;;;;;;6273300;28;20249;-78
2023/10/23 11:49:34;;;;;;;6.10;5.80;;;15.90;67.30;;;;;;6292081;28;20252;-80
2023/10/23 11:52:37;;;;;;;6.17;5.77;;;15.80;67.40;;;;;;6273237;28;20249;-79
2023/10/23 11:55:40;;;;;;;8.00;6.53;;;15.90;67.00;;;;;;6272500;28;20243;-80
2023/10/23 11:58:46;;;;;;;5.93;5.63;;;15.70;67.50;;;;;;6263332;28;20245;-78
2023/10/23 12:01:52;;;;;;;7.07;6.67;;;15.50;67.80;;;;;;6245897;28;20227;-77
2023/10/23 12:04:56;;;;;;;6.23;6.00;;;15.40;68.20;;;;;;6261935;28;20229;-78
2023/10/23 12:07:59;;;;;;;6.43;6.07;;;15.30;68.60;;;;;;6265172;28;20294;-81
2023/10/23 12:11:02;;;;;;;6.10;5.80;;;15.40;68.70;;;;;;6237143;28;20234;-79
2023/10/23 12:14:07;;;;;;;6.50;6.20;;;15.50;68.50;;;;;;6233295;28;20243;-83
2023/10/23 12:17:11;;;;;;;6.30;6.00;;;15.60;67.80;;;;;;6250863;28;20230;-82
2023/10/23 12:20:16;;;;;;;6.10;5.80;;;15.80;67.30;;;;;;6236705;28;20587;-80
2023/10/23 12:23:20;;;;;;;6.43;6.20;;;15.70;67.80;;;;;;6256530;28;20249;-82
2023/10/23 12:26:23;;;;;;;7.70;7.30;;;15.60;68.20;;;;;;6258308;28;20237;-81
2023/10/23 12:29:28;;;;;;;7.20;6.80;;;15.60;68.20;;;;;;6254270;28;20746;-81
2023/10/23 12:32:32;;;;;;;7.50;6.83;;;15.50;68.70;;;;;;6240958;28;20243;-79
2023/10/23 12:35:55;;;;;;;6.57;6.23;;;15.50;68.80;;;;;;6249885;28;20231;-83
2023/10/23 12:38:58;;;;;;;6.60;6.30;;;15.60;68.90;;;;;;6242455;28;20784;-83
2023/10/23 12:42:01;;;;;;;7.83;7.40;;;15.70;68.40;;;;;;6248666;28;20321;-81
2023/10/23 12:45:07;;;;;;;6.53;6.23;;;15.60;67.80;;;;;;6248359;28;20238;-81
2023/10/23 12:48:11;;;;;;;5.80;5.60;;;15.50;68.40;;;;;;6252564;28;20652;-80
2023/10/23 12:51:14;;;;;;;5.50;5.37;;;15.50;68.40;;;;;;6238866;28;20893;-81
2023/10/23 12:54:17;;;;;;;6.00;5.60;;;15.40;68.20;;;;;;6246622;28;20257;-82
2023/10/23 12:57:20;;;;;;;4.90;4.70;;;15.30;68.20;;;;;;6252134;28;20322;-79
2023/10/23 13:00:25;;;;;;;5.67;5.47;;;15.20;68.50;;;;;;6245734;28;20843;-79
2023/10/23 13:03:28;;;;;;;4.80;4.70;;;15.10;68.60;;;;;;6244896;28;20253;-82
2023/10/23 13:06:31;;;;;;;5.50;5.20;;;15.00;69.00;;;;;;6242975;28;20874;-81
2023/10/23 13:09:34;;;;;;;6.37;5.97;;;15.00;69.30;;;;;;6232502;28;20240;-83
2023/10/23 13:12:37;;;;;;;5.40;5.10;;;14.90;69.30;;;;;;6226354;28;20239;-82
2023/10/23 13:15:42;;;;;;;5.27;4.97;;;14.80;69.40;;;;;;6238295;28;20243;-82
2023/10/23 13:18:45;;;;;;;6.23;5.67;;;14.80;69.50;;;;;;6234642;28;20227;-81
2023/10/23 13:21:55;;;;;;;5.03;4.83;;;14.60;69.20;;;;;;6232109;28;20239;-82
2023/10/23 13:24:59;;;;;;;4.67;4.47;;;14.50;69.50;;;;;;6230702;28;20337;-84
2023/10/23 13:28:04;;;;;;;4.87;4.67;;;14.40;69.70;;;;;;6237808;28;20291;-80
2023/10/23 13:31:09;;;;;;;4.10;4.00;;;14.40;69.70;;;;;;6237190;28;20227;-80
2023/10/23 13:34:12;;;;;;;4.40;4.30;;;14.30;69.80;;;;;;6235574;28;20239;-82
2023/10/23 13:37:15;;;;;;;4.87;4.63;;;14.30;70.10;;;;;;6244385;28;20279;-81
2023/10/23 13:40:19;;;;;;;4.57;4.37;;;14.20;70.40;;;;;;6234704;28;20238;-82
2023/10/23 13:43:22;;;;;;;4.77;4.53;;;14.20;70.80;;;;;;6236882;28;20242;-82
2023/10/23 13:46:27;;;;;;;4.63;4.33;;;14.10;71.10;;;;;;6237232;28;20726;-78
2023/10/23 13:49:30;;;;;;;5.50;5.30;;;14.10;71.50;;;;;;6237128;28;20239;-81
2023/10/23 13:52:33;;;;;;;4.53;4.43;;;14.00;71.80;;;;;;6224836;28;20242;-83
2023/10/23 13:55:36;;;;;;;3.83;3.73;;;14.00;71.90;;;;;;6243066;28;20706;-81
2023/10/23 13:58:39;;;;;;;4.20;4.10;;;14.00;72.00;;;;;;6233932;28;20300;-80
2023/10/23 14:01:44;;;;;;;4.87;4.67;;;14.10;72.10;;;;;;6232084;28;20859;-81
2023/10/23 14:04:48;;;;;;;4.20;4.10;;;14.20;72.10;;;;;;6226798;28;20304;-81
2023/10/23 14:07:52;;;;;;;3.83;3.73;;;14.20;72.30;;;;;;6244474;28;20238;-80
2023/10/23 14:10:55;;;;;;;4.33;4.13;;;14.30;72.30;;;;;;6236050;28;20245;-79
2023/10/23 14:14:19;;;;;;;4.30;4.00;;;14.40;72.60;;;;;;6227013;28;20235;-78
2023/10/23 14:17:23;;;;;;;4.30;4.10;;;14.60;72.70;;;;;;6235129;28;20693;-80
2023/10/23 14:20:26;;;;;;;4.20;4.10;;;14.60;72.50;;;;;;6237925;28;20346;-80
2023/10/23 14:23:30;;;;;;;4.60;4.40;;;14.60;72.50;;;;;;6235371;28;20288;-82
2023/10/23 14:26:33;;;;;;;3.93;3.83;;;14.50;72.60;;;;;;6232734;28;20369;-78
2023/10/23 14:29:36;;;;;;;4.50;4.23;;;14.40;72.80;;;;;;6239325;28;20257;-79
2023/10/23 14:32:43;;;;;;;4.13;3.97;;;14.30;73.00;;;;;;6229093;28;20249;-78
2023/10/23 14:35:46;;;;;;;3.87;3.67;;;14.30;73.20;;;;;;6231256;28;20231;-80
2023/10/23 14:38:49;;;;;;;4.57;4.20;;;14.20;73.30;;;;;;6239618;28;20313;-80
2023/10/23 14:41:52;;;;;;;4.30;4.20;;;14.20;73.30;;;;;;6241608;28;20238;-79
2023/10/23 14:44:55;;;;;;;4.57;4.47;;;14.20;73.30;;;;;;6240492;28;20235;-82
2023/10/23 14:48:00;;;;;;;4.77;4.37;;;14.20;73.40;;;;;;6239492;28;20234;-79
2023/10/23 14:51:03;;;;;;;4.40;4.20;;;14.20;73.50;;;;;;6234318;28;20239;-82
2023/10/23 14:54:06;;;;;;;4.90;4.77;;;14.20;73.60;;;;;;6231725;28;20253;-80
2023/10/23 14:57:09;;;;;;;4.77;4.57;;;14.10;73.70;;;;;;6241867;28;20244;-82
2023/10/23 15:00:14;;;;;;;4.80;4.60;;;14.10;73.90;;;;;;6247594;28;20238;-82
2023/10/23 15:03:19;;;;;;;5.33;5.10;;;14.10;74.00;;;;;;6243928;28;20249;-80
2023/10/23 15:06:22;;;;;;;5.00;4.70;;;14.00;74.10;;;;;;6243447;28;20296;-80
2023/10/23 15:09:25;;;;;;;5.50;5.13;;;14.00;74.20;;;;;;6242931;28;20860;-81
2023/10/23 15:12:28;;;;;;;4.87;4.57;;;14.00;74.30;;;;;;6242491;28;20253;-80
2023/10/23 15:15:33;;;;;;;5.40;5.00;;;13.90;74.30;;;;;;6258246;28;20238;-83
2023/10/23 15:18:38;;;;;;;4.97;4.87;;;13.90;74.40;;;;;;6248366;28;20231;-83
2023/10/23 15:21:42;;;;;;;5.33;5.13;;;13.70;74.50;;;;;;6241718;28;20237;-83
2023/10/23 15:24:45;;;;;;;5.53;5.07;;;13.60;74.70;;;;;;6246396;28;20281;-82
2023/10/23 15:27:49;;;;;;;5.20;5.00;;;13.50;75.00;;;;;;6252293;28;20367;-81
2023/10/23 15:30:55;;;;;;;5.07;4.87;;;13.50;75.10;;;;;;6237028;28;20787;-80
2023/10/23 15:34:00;;;;;;;7.07;6.37;;;13.40;75.40;;;;;;6241916;28;20239;-83
2023/10/23 15:37:04;;;;;;;6.07;5.83;;;13.30;75.40;;;;;;6250931;28;20278;-81
2023/10/23 15:40:08;;;;;;;5.97;5.60;;;13.30;75.50;;;;;;6254994;28;20245;-83
2023/10/23 15:43:11;;;;;;;6.80;6.40;;;13.20;75.50;;;;;;6243629;28;20644;-79
2023/10/23 15:46:16;;;;;;;5.40;5.20;;;13.10;75.70;;;;;;6243864;28;20243;-82
2023/10/23 15:49:21;;;;;;;6.67;6.40;;;13.10;75.80;;;;;;6240755;28;20239;-81
2023/10/23 15:52:24;;;;;;;6.40;6.07;;;13.10;75.90;;;;;;6243992;28;20266;-79
2023/10/23 15:55:27;;;;;;;8.93;7.90;;;13.00;76.00;;;;;;6242497;28;20316;-81
2023/10/23 15:58:31;;;;;;;7.10;6.70;;;13.00;76.10;;;;;;6254087;28;20234;-82
2023/10/23 16:01:35;;;;;;;7.97;7.33;;;13.00;76.00;;;;;;6243628;28;20234;-81